No particular awareness of the weather is required.    There are no Weather-warnings


Meteo18 Weather Cam more information Meteo18 Weather Cam


Thunder radar more information blitzortung!


Rain radar more information rain snow radar


Visit our other weather sites:

Template documentation
and downloads

And another site



Weather Underground History page Text

Daily Summary for February 28, 2018 Units:  Metric    English   Both
« Previous Day
Next Day »
Daily Weekly Monthly Yearly Custom
  High: Low: Average:
Temperature: -17.8 °C -23.8 °C -20.7 °C
Dew Point: -17.8 °C -25.4 °C -23.3 °C
Humidity: Humidity % 47 % 71 %
Wind Speed: 0 km/h 0 km/h 13.2 km/h
Wind Gust: 0 km/h - -
Wind:- - ENE
Pressure: 0 hPa 33788.9 hPa -
Precipitation: 0 mm    
Historical Graphs
 
 
Tabular Data for February 28, 2018
Time Temperature Dew Point Pressure Wind Wind Speed Wind Gust Humidity Rainfall Rate (Hourly)
-17.8 °C -17.8 °C 0 hPa Calm     Humidity % 0 mm
00:00 -21.9 °C -24.3 °C 34347.6 hPa ENE 5.1 km/h 10.3 km/h 71 % 0 mm
00:06 -22 °C -24.3 °C 34347.6 hPa NE 10.3 km/h 10.3 km/h 72 % 0 mm
00:12 -22.1 °C -24.4 °C 34347.6 hPa NE 2.3 km/h 7.7 km/h 72 % 0 mm
00:18 -22.1 °C -24.4 °C 34347.6 hPa NNE 5.1 km/h 10.3 km/h 72 % 0 mm
00:24 -22.1 °C -24.3 °C 34337.4 hPa NNE 5.1 km/h 7.7 km/h 73 % 0 mm
00:30 -22.1 °C -24.3 °C 34337.4 hPa NE 7.6 km/h 10.3 km/h 73 % 0 mm
00:36 -22.1 °C -24.3 °C 34337.4 hPa NNE 2.3 km/h 12.9 km/h 73 % 0 mm
00:42 -22.2 °C -24.4 °C 34337.4 hPa NNE 5.1 km/h 7.7 km/h 73 % 0 mm
00:48 -22.3 °C -24.4 °C 34327.3 hPa NE 7.6 km/h 10.3 km/h 74 % 0 mm
00:54 -22.3 °C -24.4 °C 34327.3 hPa North 2.3 km/h 5.1 km/h 74 % 0 mm
01:00 -22.3 °C -24.4 °C 34327.3 hPa NE 2.3 km/h 10.3 km/h 74 % 0 mm
01:06 -22.4 °C -24.4 °C 34313.7 hPa North 2.3 km/h 7.7 km/h 75 % 0 mm
01:12 -22.6 °C -24.6 °C 34313.7 hPa NE 5.1 km/h 12.9 km/h 75 % 0 mm
01:18 -22.6 °C -24.6 °C 34313.7 hPa Calm   5.1 km/h 75 % 0 mm
01:24 -22.7 °C -24.6 °C 34313.7 hPa Calm   5.1 km/h 76 % 0 mm
01:30 -22.7 °C -24.6 °C 34327.3 hPa Calm   2.6 km/h 76 % 0 mm
01:36 -22.7 °C -24.7 °C 34313.7 hPa Calm   5.1 km/h 76 % 0 mm
01:42 -22.8 °C -24.6 °C 34313.7 hPa Calm   5.1 km/h 77 % 0 mm
01:48 -22.8 °C -24.7 °C 34313.7 hPa Calm   5.1 km/h 77 % 0 mm
01:54 -22.8 °C -24.6 °C 34313.7 hPa Calm   5.1 km/h 77 % 0 mm
02:00 -22.7 °C -24.6 °C 34313.7 hPa NNE 2.3 km/h 7.7 km/h 77 % 0 mm
02:06 -22.7 °C -24.6 °C 34303.6 hPa NE 2.3 km/h 10.3 km/h 77 % 0 mm
02:12 -22.7 °C -24.6 °C 34303.6 hPa NNE 5.1 km/h 15.6 km/h 76 % 0 mm
02:18 -22.6 °C -24.6 °C 34303.6 hPa NE 12.7 km/h 15.6 km/h 75 % 0 mm
02:24 -22.6 °C -24.7 °C 34303.6 hPa NNE 5.1 km/h 23.3 km/h 74 % 0 mm
02:30 -22.5 °C -24.7 °C 34303.6 hPa NE 7.6 km/h 15.6 km/h 73 % 0 mm
02:36 -22.4 °C -24.7 °C 34303.6 hPa NE 5.1 km/h 12.9 km/h 73 % 0 mm
02:42 -22.4 °C -24.7 °C 34303.6 hPa NE 23.3 km/h 23.3 km/h 72 % 0 mm
02:48 -22.4 °C -24.7 °C 34293.4 hPa NNE 2.3 km/h 12.9 km/h 72 % 0 mm
02:54 -22.4 °C -24.8 °C 34293.4 hPa ENE 7.6 km/h 28.5 km/h 71 % 0 mm
03:00 -22.5 °C -24.9 °C 34293.4 hPa NNE 10.3 km/h 15.6 km/h 71 % 0 mm
03:06 -22.6 °C -24.9 °C 34293.4 hPa NNE 5.1 km/h 10.3 km/h 71 % 0 mm
03:12 -22.6 °C -24.9 °C 34279.9 hPa NNE 7.6 km/h 7.7 km/h 71 % 0 mm
03:18 -22.6 °C -24.9 °C 34279.9 hPa NNE 2.3 km/h 7.7 km/h 72 % 0 mm
03:24 -22.7 °C -24.9 °C 34279.9 hPa NNE 7.6 km/h 7.7 km/h 73 % 0 mm
03:30 -22.7 °C -24.8 °C 34269.7 hPa NNW 2.3 km/h 5.1 km/h 74 % 0 mm
03:36 -22.8 °C -24.9 °C 34279.9 hPa NNE 2.3 km/h 5.1 km/h 74 % 0 mm
03:42 -22.9 °C -25 °C 34279.9 hPa Calm   2.6 km/h 74 % 0 mm
03:48 -22.9 °C -25 °C 34269.7 hPa Calm   7.7 km/h 74 % 0 mm
03:54 -22.9 °C -24.9 °C 34269.7 hPa Calm   10.3 km/h 75 % 0 mm
04:00 -22.9 °C -24.9 °C 34269.7 hPa Calm   7.7 km/h 75 % 0 mm
04:06 -23 °C -25 °C 34269.7 hPa Calm   10.3 km/h 75 % 0 mm
04:12 -23 °C -25 °C 34269.7 hPa NNW 2.3 km/h 7.7 km/h 75 % 0 mm
04:18 -23 °C -25 °C 34269.7 hPa Calm   7.7 km/h 75 % 0 mm
04:24 -23.1 °C -25.1 °C 34269.7 hPa Calm   2.6 km/h 75 % 0 mm
04:30 -23.1 °C -25.1 °C 34269.7 hPa Calm   2.6 km/h 75 % 0 mm
04:36 -23.2 °C -25.2 °C 34269.7 hPa Calm   2.6 km/h 75 % 0 mm
04:42 -23.2 °C -25.2 °C 34269.7 hPa Calm   2.6 km/h 75 % 0 mm
04:48 -23.2 °C -25.1 °C 34269.7 hPa NW 2.3 km/h 2.6 km/h 76 % 0 mm
04:54 -23.2 °C -25.2 °C 34269.7 hPa Calm   2.6 km/h 75 % 0 mm
05:00 -23.3 °C -25.2 °C 34256.2 hPa Calm   2.6 km/h 76 % 0 mm
05:06 -23.3 °C -25.2 °C 34256.2 hPa North 2.3 km/h 2.6 km/h 76 % 0 mm
05:12 -23.3 °C -25.2 °C 34256.2 hPa Calm   2.6 km/h 76 % 0 mm
05:18 -23.4 °C -25.3 °C 34269.7 hPa Calm   2.6 km/h 76 % 0 mm
05:24 -23.4 °C -25.2 °C 34269.7 hPa Calm   2.6 km/h 77 % 0 mm
05:30 -23.4 °C -25.3 °C 34256.2 hPa Calm   2.6 km/h 77 % 0 mm
05:37 -23.4 °C -25.3 °C 34256.2 hPa Calm   2.6 km/h 77 % 0 mm
05:43 -23.5 °C -25.3 °C 34256.2 hPa Calm     77 % 0 mm
05:49 -23.5 °C -25.2 °C 34256.2 hPa Calm   2.6 km/h 78 % 0 mm
05:55 -23.6 °C -25.3 °C 34256.2 hPa Calm   2.6 km/h 78 % 0 mm
06:01 -23.7 °C -25.4 °C 34256.2 hPa Calm     78 % 0 mm
06:07 -23.7 °C -25.4 °C 34256.2 hPa Calm   2.6 km/h 78 % 0 mm
06:13 -23.7 °C -25.3 °C 34256.2 hPa Calm   2.6 km/h 79 % 0 mm
06:19 -23.7 °C -25.3 °C 34256.2 hPa North 2.3 km/h 2.6 km/h 79 % 0 mm
06:25 -23.7 °C -25.3 °C 34246 hPa Calm   5.1 km/h 79 % 0 mm
06:31 -23.8 °C -25.3 °C 34246 hPa NE 2.3 km/h 5.1 km/h 80 % 0 mm
06:37 -23.8 °C -25.3 °C 34235.8 hPa NNW 2.3 km/h 5.1 km/h 81 % 0 mm
06:43 -23.8 °C -25.2 °C 34246 hPa Calm   7.7 km/h 81 % 0 mm
06:49 -23.8 °C -25.2 °C 34246 hPa NNE 7.6 km/h 10.3 km/h 81 % 0 mm
06:55 -23.7 °C -25.2 °C 34235.8 hPa NE 15.6 km/h 20.8 km/h 80 % 0 mm
07:01 -23.6 °C -25.2 °C 34222.3 hPa NE 26.2 km/h 28.5 km/h 79 % 0 mm
07:07 -23.5 °C -25.1 °C 34222.3 hPa NNE 5.1 km/h 18.2 km/h 79 % 0 mm
07:13 -23.6 °C -25.2 °C 34235.8 hPa NNE 7.6 km/h 23.3 km/h 79 % 0 mm
07:19 -23.6 °C -25.2 °C 34222.3 hPa NE 10.3 km/h 28.5 km/h 79 % 0 mm
07:25 -23.4 °C -25.2 °C 34222.3 hPa NE 7.6 km/h 38.8 km/h 78 % 0 mm
07:31 -23.4 °C -25.2 °C 34222.3 hPa NNE 20.9 km/h 25.9 km/h 78 % 0 mm
07:37 -23.5 °C -25.2 °C 34235.8 hPa NE 26.2 km/h 31.1 km/h 78 % 0 mm
07:43 -23.4 °C -25.2 °C 34222.3 hPa NE 26.2 km/h 31.1 km/h 78 % 0 mm
07:49 -23.4 °C -25.2 °C 34222.3 hPa ENE 26.2 km/h 36.2 km/h 78 % 0 mm
07:55 -23.4 °C -25.2 °C 34222.3 hPa NE 12.7 km/h 28.5 km/h 78 % 0 mm
08:01 -23.4 °C -25.2 °C 34222.3 hPa NNE 20.9 km/h 28.5 km/h 78 % 0 mm
08:07 -23.4 °C -25.1 °C 34222.3 hPa NE 5.1 km/h 28.5 km/h 78 % 0 mm
08:13 -23.4 °C -25.1 °C 34222.3 hPa ENE 2.3 km/h 25.9 km/h 78 % 0 mm
08:19 -23.3 °C -25.1 °C 34235.8 hPa NE 7.6 km/h 31.1 km/h 78 % 0 mm
08:25 -23.2 °C -24.9 °C 34222.3 hPa NE 15.6 km/h 31.1 km/h 78 % 0 mm
08:31 -23.2 °C -25 °C 34222.3 hPa NNE 17.9 km/h 33.6 km/h 77 % 0 mm
08:37 -23.1 °C -25 °C 34222.3 hPa NE 12.7 km/h 36.2 km/h 76 % 0 mm
08:43 -23 °C -24.9 °C 34222.3 hPa NE 26.2 km/h 28.5 km/h 76 % 0 mm
08:49 -22.9 °C -24.8 °C 34222.3 hPa ENE 10.3 km/h 18.2 km/h 76 % 0 mm
08:55 -22.8 °C -24.8 °C 34222.3 hPa NNE 17.9 km/h 18.2 km/h 75 % 0 mm
09:01 -22.7 °C -24.8 °C 34212.1 hPa NE 15.6 km/h 25.9 km/h 74 % 0 mm
09:07 -22.6 °C -24.7 °C 34212.1 hPa NE 5.1 km/h 31.1 km/h 74 % 0 mm
09:13 -22.6 °C -24.7 °C 34212.1 hPa ENE 5.1 km/h 20.8 km/h 74 % 0 mm
09:19 -22.4 °C -24.7 °C 34198.6 hPa NE 15.6 km/h 31.1 km/h 73 % 0 mm
09:25 -22.3 °C -24.6 °C 34198.6 hPa NE 7.6 km/h 23.3 km/h 73 % 0 mm
09:31 -22.3 °C -24.6 °C 34198.6 hPa NNE 17.9 km/h 25.9 km/h 72 % 0 mm
09:37 -22.2 °C -24.6 °C 34198.6 hPa NE 17.9 km/h 28.5 km/h 71 % 0 mm
09:43 -22.2 °C -24.6 °C 34198.6 hPa East 2.3 km/h 18.2 km/h 71 % 0 mm
09:49 -22 °C -24.4 °C 34188.4 hPa ENE 31.4 km/h 31.4 km/h 71 % 0 mm
09:55 -21.8 °C -24.3 °C 34188.4 hPa NE 15.6 km/h 25.9 km/h 70 % 0 mm
09:59 -21.8 °C -24.3 °C 34188.4 hPa ESE 5.1 km/h 20.8 km/h 70 % 0 mm
10:01 -21.7 °C -24.3 °C 34188.4 hPa NE 20.9 km/h 33.6 km/h 69 % 0 mm
10:07 -21.6 °C -24.4 °C 34178.3 hPa NNE 7.6 km/h 41.4 km/h 67 % 0 mm
10:13 -21.4 °C -24.4 °C 34178.3 hPa NE 7.6 km/h 33.6 km/h 66 % 0 mm
10:19 -21.2 °C -24.5 °C 34164.7 hPa East 36.5 km/h 36.5 km/h 63 % 0 mm
10:25 -21.2 °C -24.6 °C 34154.6 hPa East 36.5 km/h 41.4 km/h 62 % 0 mm
10:31 -21.3 °C -24.7 °C 34154.6 hPa ENE 26.2 km/h 36.2 km/h 62 % 0 mm
10:37 -21.2 °C -24.6 °C 34154.6 hPa NE 17.9 km/h 36.2 km/h 62 % 0 mm
10:43 -21.1 °C -24.6 °C 34144.4 hPa ENE 12.7 km/h 41.4 km/h 61 % 0 mm
10:49 -20.9 °C -24.4 °C 34144.4 hPa ENE 12.7 km/h 25.9 km/h 61 % 0 mm
10:55 -20.8 °C -24.4 °C 34144.4 hPa NE 15.6 km/h 36.2 km/h 60 % 0 mm
11:01 -20.7 °C -24.3 °C 34144.4 hPa ENE 10.3 km/h 36.2 km/h 60 % 0 mm
11:07 -20.7 °C -24.4 °C 34144.4 hPa East 15.6 km/h 23.3 km/h 59 % 0 mm
11:13 -20.7 °C -24.3 °C 34154.6 hPa ENE 17.9 km/h 31.1 km/h 60 % 0 mm
11:19 -20.7 °C -24.4 °C 34154.6 hPa NE 28.5 km/h 38.8 km/h 59 % 0 mm
11:25 -20.6 °C -24.3 °C 34154.6 hPa East 26.2 km/h 36.2 km/h 59 % 0 mm
11:31 -20.4 °C -24.3 °C 34154.6 hPa ENE 15.6 km/h 36.2 km/h 58 % 0 mm
11:37 -20.4 °C -24.3 °C 34154.6 hPa ENE 26.2 km/h 33.6 km/h 58 % 0 mm
11:43 -20.2 °C -24.2 °C 34154.6 hPa ENE 7.6 km/h 25.9 km/h 57 % 0 mm
11:49 -20 °C -24.1 °C 34154.6 hPa NE 17.9 km/h 25.9 km/h 57 % 0 mm
11:55 -19.9 °C -24.2 °C 34144.4 hPa ENE 12.7 km/h 23.3 km/h 55 % 0 mm
12:01 -19.8 °C -24.1 °C 34144.4 hPa NE 10.3 km/h 28.5 km/h 55 % 0 mm
12:07 -19.7 °C -24.1 °C 34144.4 hPa ESE 10.3 km/h 25.9 km/h 54 % 0 mm
12:13 -19.7 °C -24.2 °C 34144.4 hPa ENE 12.7 km/h 44.1 km/h 53 % 0 mm
12:19 -19.6 °C -24.4 °C 34130.9 hPa NE 12.7 km/h 36.2 km/h 51 % 0 mm
12:25 -19.6 °C -24.3 °C 34120.7 hPa NE 28.5 km/h 38.8 km/h 52 % 0 mm
12:31 -19.6 °C -24.4 °C 34107.2 hPa ENE 17.9 km/h 28.5 km/h 51 % 0 mm
12:37 -19.4 °C -24.2 °C 34107.2 hPa East 20.9 km/h 36.2 km/h 51 % 0 mm
12:43 -19.4 °C -24.4 °C 34107.2 hPa NE 17.9 km/h 46.7 km/h 50 % 0 mm
12:49 -19.3 °C -24.1 °C 34097 hPa ENE 26.2 km/h 33.6 km/h 51 % 0 mm
12:55 -19.2 °C -24.1 °C 34097 hPa NE 10.3 km/h 36.2 km/h 51 % 0 mm
13:01 -19.2 °C -24.2 °C 34086.9 hPa East 20.9 km/h 31.1 km/h 50 % 0 mm
13:07 -19.2 °C -24.2 °C 34086.9 hPa NNE 28.5 km/h 36.2 km/h 50 % 0 mm
13:13 -19.1 °C -24 °C 34086.9 hPa ENE 5.1 km/h 28.5 km/h 51 % 0 mm
13:19 -18.9 °C -23.9 °C 34086.9 hPa East 7.6 km/h 38.8 km/h 50 % 0 mm
13:25 -18.8 °C -23.8 °C 34086.9 hPa East 33.6 km/h 33.6 km/h 50 % 0 mm
13:31 -18.8 °C -23.8 °C 34073.3 hPa NNW 20.9 km/h 33.6 km/h 50 % 0 mm
13:37 -18.8 °C -23.8 °C 34073.3 hPa ENE 31.4 km/h 36.2 km/h 50 % 0 mm
13:43 -18.7 °C -23.8 °C 34063.2 hPa ENE 20.9 km/h 33.6 km/h 50 % 0 mm
13:49 -18.7 °C -23.8 °C 34063.2 hPa NE 26.2 km/h 38.8 km/h 50 % 0 mm
13:55 -18.7 °C -23.7 °C 34063.2 hPa NE 31.4 km/h 33.6 km/h 50 % 0 mm
14:01 -18.6 °C -23.4 °C 34049.6 hPa NE 17.9 km/h 31.1 km/h 51 % 0 mm
14:07 -18.5 °C -23.7 °C 34049.6 hPa East 26.2 km/h 41.4 km/h 49 % 0 mm
14:13 -18.5 °C -23.6 °C 34049.6 hPa NE 15.6 km/h 38.8 km/h 50 % 0 mm
14:19 -18.4 °C -23.6 °C 34049.6 hPa NE 20.9 km/h 44.1 km/h 49 % 0 mm
14:25 -18.3 °C -23.6 °C 34049.6 hPa ENE 17.9 km/h 41.4 km/h 49 % 0 mm
14:31 -18.3 °C -23.6 °C 34049.6 hPa ENE 15.6 km/h 36.2 km/h 48 % 0 mm
14:37 -18.2 °C -23.6 °C 34049.6 hPa ENE 33.6 km/h 38.8 km/h 48 % 0 mm
14:43 -18.2 °C -23.6 °C 34049.6 hPa NE 26.2 km/h 36.2 km/h 48 % 0 mm
14:49 -18.1 °C -23.6 °C 34039.5 hPa East 23 km/h 38.8 km/h 47 % 0 mm
14:56 -18.1 °C -23.5 °C 34039.5 hPa ENE 17.9 km/h 31.1 km/h 48 % 0 mm
15:02 -18 °C -23.5 °C 34029.3 hPa ENE 15.6 km/h 31.1 km/h 47 % 0 mm
15:07 -18 °C -23.5 °C 34029.3 hPa NE 15.6 km/h 44.1 km/h 47 % 0 mm
15:14 -17.9 °C -23.3 °C 34015.8 hPa East 23 km/h 31.1 km/h 48 % 0 mm
15:20 -17.9 °C -23.3 °C 34015.8 hPa ENE 17.9 km/h 23.3 km/h 48 % 0 mm
15:26 -17.9 °C -23.3 °C 34005.6 hPa ENE 10.3 km/h 31.1 km/h 48 % 0 mm
15:32 -17.9 °C -23.3 °C 34005.6 hPa ENE 26.2 km/h 51.8 km/h 48 % 0 mm
15:38 -17.9 °C -23.3 °C 34005.6 hPa NE 23 km/h 36.2 km/h 48 % 0 mm
15:44 -17.9 °C -23.2 °C 34005.6 hPa NNE 26.2 km/h 38.8 km/h 49 % 0 mm
15:50 -17.9 °C -23.1 °C 34005.6 hPa ENE 12.7 km/h 28.5 km/h 49 % 0 mm
15:56 -17.9 °C -23.3 °C 34005.6 hPa NE 23 km/h 41.4 km/h 48 % 0 mm
16:02 -17.9 °C -23.1 °C 33992.1 hPa NNE 12.7 km/h 33.6 km/h 49 % 0 mm
16:08 -17.9 °C -23.1 °C 33992.1 hPa NNE 10.3 km/h 38.8 km/h 49 % 0 mm
16:14 -17.8 °C -22.9 °C 33981.9 hPa ENE 12.7 km/h 18.2 km/h 50 % 0 mm
16:20 -17.7 °C -23 °C 33971.7 hPa NE 10.3 km/h 31.1 km/h 49 % 0 mm
16:26 -17.8 °C -23.2 °C 33971.7 hPa NE 36.5 km/h 49.2 km/h 48 % 0 mm
16:32 -17.8 °C -23 °C 33971.7 hPa ENE 38.8 km/h 38.8 km/h 49 % 0 mm
16:38 -17.8 °C -23.2 °C 33958.2 hPa NE 23 km/h 41.4 km/h 48 % 0 mm
16:44 -17.9 °C -23.1 °C 33958.2 hPa ENE 23 km/h 33.6 km/h 49 % 0 mm
16:50 -17.9 °C -23.1 °C 33958.2 hPa East 36.5 km/h 46.7 km/h 49 % 0 mm
16:56 -17.9 °C -23.1 °C 33948 hPa East 33.6 km/h 41.4 km/h 49 % 0 mm
17:02 -17.9 °C -23.1 °C 33948 hPa ENE 44.1 km/h 46.7 km/h 49 % 0 mm
17:08 -17.9 °C -23 °C 33937.9 hPa ENE 33.6 km/h 38.8 km/h 50 % 0 mm
17:14 -17.9 °C -22.8 °C 33937.9 hPa East 23 km/h 41.4 km/h 51 % 0 mm
17:20 -17.9 °C -22.6 °C 33937.9 hPa East 31.4 km/h 44.1 km/h 53 % 0 mm
17:26 -17.9 °C -22.1 °C 33937.9 hPa East 36.5 km/h 46.7 km/h 57 % 0 mm
17:32 -18 °C -21.8 °C 33937.9 hPa East 17.9 km/h 38.8 km/h 60 % 0 mm
17:38 -18.2 °C -21.3 °C 33937.9 hPa East 23 km/h 38.8 km/h 66 % 0 mm
17:44 -18.5 °C -20.9 °C 33937.9 hPa ENE 12.7 km/h 28.5 km/h 72 % 0 mm
17:50 -18.7 °C -20.8 °C 33937.9 hPa East 12.7 km/h 28.5 km/h 75 % 0 mm
17:56 -18.8 °C -20.7 °C 33937.9 hPa ENE 26.2 km/h 36.2 km/h 77 % 0 mm
18:02 -18.8 °C -20.6 °C 33948 hPa East 10.3 km/h 25.9 km/h 79 % 0 mm
18:08 -18.8 °C -20.6 °C 33937.9 hPa East 7.6 km/h 23.3 km/h 79 % 0 mm
18:14 -18.8 °C -20.5 °C 33924.3 hPa East 10.3 km/h 23.3 km/h 80 % 0 mm
18:20 -18.9 °C -20.5 °C 33914.2 hPa ESE 15.6 km/h 25.9 km/h 81 % 0 mm
18:26 -18.9 °C -20.4 °C 33914.2 hPa ENE 15.6 km/h 31.1 km/h 82 % 0 mm
18:32 -19 °C -20.4 °C 33924.3 hPa ENE 23 km/h 25.9 km/h 83 % 0 mm
18:38 -19.1 °C -20.3 °C 33924.3 hPa ENE 26.2 km/h 28.5 km/h 85 % 0 mm
18:44 -19.1 °C -20.2 °C 33924.3 hPa ENE 20.9 km/h 31.1 km/h 86 % 0 mm
18:50 -19.1 °C -20.2 °C 33924.3 hPa NE 10.3 km/h 38.8 km/h 86 % 0 mm
18:56 -19.2 °C -20.2 °C 33924.3 hPa East 23 km/h 49.2 km/h 87 % 0 mm
19:02 -19.2 °C -20.2 °C 33924.3 hPa ENE 23 km/h 33.6 km/h 88 % 0 mm
19:08 -19.3 °C -20.2 °C 33914.2 hPa ENE 26.2 km/h 33.6 km/h 88 % 0 mm
19:14 -19.3 °C -20.2 °C 33914.2 hPa ENE 5.1 km/h 28.5 km/h 89 % 0 mm
19:20 -19.3 °C -20.2 °C 33900.6 hPa NE 7.6 km/h 31.1 km/h 88 % 0 mm
19:26 -19.3 °C -20.2 °C 33900.6 hPa NNE 26.2 km/h 28.5 km/h 88 % 0 mm
19:32 -19.3 °C -20.3 °C 33900.6 hPa ENE 7.6 km/h 25.9 km/h 88 % 0 mm
19:38 -19.3 °C -20.3 °C 33900.6 hPa ENE 12.7 km/h 41.4 km/h 88 % 0 mm
19:44 -19.4 °C -20.3 °C 33900.6 hPa NE 12.7 km/h 31.1 km/h 88 % 0 mm
19:50 -19.4 °C -20.3 °C 33890.5 hPa ENE 28.5 km/h 33.6 km/h 88 % 0 mm
19:56 -19.4 °C -20.3 °C 33890.5 hPa NE 15.6 km/h 28.5 km/h 88 % 0 mm
20:02 -19.4 °C -20.3 °C 33890.5 hPa NE 28.5 km/h 28.5 km/h 88 % 0 mm
20:08 -19.4 °C -20.4 °C 33880.3 hPa NE 12.7 km/h 31.1 km/h 88 % 0 mm
20:14 -19.4 °C -20.3 °C 33880.3 hPa ENE 12.7 km/h 33.6 km/h 89 % 0 mm
20:20 -19.4 °C -20.3 °C 33880.3 hPa ENE 7.6 km/h 23.3 km/h 89 % 0 mm
20:26 -19.4 °C -20.3 °C 33880.3 hPa NE 15.6 km/h 28.5 km/h 89 % 0 mm
20:32 -19.4 °C -20.3 °C 33866.8 hPa NE 23 km/h 38.8 km/h 89 % 0 mm
20:38 -19.4 °C -20.3 °C 33866.8 hPa NE 23 km/h 31.1 km/h 89 % 0 mm
20:44 -19.4 °C -20.3 °C 33866.8 hPa NE 28.5 km/h 28.5 km/h 89 % 0 mm
20:50 -19.4 °C -20.3 °C 33866.8 hPa NE 5.1 km/h 31.1 km/h 89 % 0 mm
20:56 -19.3 °C -20.2 °C 33866.8 hPa NE 12.7 km/h 20.8 km/h 89 % 0 mm
21:02 -19.3 °C -20.2 °C 33866.8 hPa ENE 23 km/h 25.9 km/h 89 % 0 mm
21:08 -19.3 °C -20.2 °C 33866.8 hPa NE 28.5 km/h 28.5 km/h 89 % 0 mm
21:14 -19.3 °C -20.2 °C 33856.6 hPa ENE 15.6 km/h 33.6 km/h 89 % 0 mm
21:20 -19.3 °C -20.2 °C 33856.6 hPa ENE 17.9 km/h 33.6 km/h 89 % 0 mm
21:28 -19.3 °C -20.1 °C 33856.6 hPa NE 12.7 km/h 20.8 km/h 90 % 0 mm
21:34 -19.3 °C -20.1 °C 33856.6 hPa ENE 17.9 km/h 23.3 km/h 90 % 0 mm
21:40 -19.3 °C -20.1 °C 33856.6 hPa ENE 5.1 km/h 28.5 km/h 90 % 0 mm
21:46 -19.3 °C -20 °C 33856.6 hPa NE 12.7 km/h 18.2 km/h 91 % 0 mm
21:50 -19.2 °C -19.9 °C 33856.6 hPa NNE 17.9 km/h 31.1 km/h 91 % 0 mm
21:56 -19.2 °C -19.9 °C 33856.6 hPa ENE 2.3 km/h 25.9 km/h 91 % 0 mm
22:02 -19.2 °C -19.9 °C 33843.1 hPa East 31.4 km/h 31.4 km/h 91 % 0 mm
22:08 -19.2 °C -19.8 °C 33843.1 hPa ENE 12.7 km/h 20.8 km/h 92 % 0 mm
22:20 -19.2 °C -19.8 °C 33832.9 hPa NNE 5.1 km/h 20.8 km/h 92 % 0 mm
22:26 -19.2 °C -19.8 °C 33832.9 hPa NE 15.6 km/h 23.3 km/h 92 % 0 mm
22:32 -19.2 °C -19.8 °C 33832.9 hPa ENE 12.7 km/h 28.5 km/h 92 % 0 mm
22:38 -19.2 °C -19.8 °C 33832.9 hPa ENE 12.7 km/h 23.3 km/h 92 % 0 mm
22:44 -19.2 °C -19.8 °C 33832.9 hPa NE 10.3 km/h 18.2 km/h 92 % 0 mm
22:50 -19.1 °C -19.7 °C 33822.8 hPa NNE 5.1 km/h 25.9 km/h 92 % 0 mm
22:56 -19.1 °C -19.7 °C 33822.8 hPa NE 12.7 km/h 23.3 km/h 92 % 0 mm
23:02 -19.1 °C -19.7 °C 33822.8 hPa ENE 7.6 km/h 20.8 km/h 92 % 0 mm
23:08 -19.1 °C -19.8 °C 33809.2 hPa NE 17.9 km/h 28.5 km/h 91 % 0 mm
23:14 -19.1 °C -19.8 °C 33809.2 hPa East 2.3 km/h 28.5 km/h 91 % 0 mm
23:20 -19.1 °C -19.8 °C 33809.2 hPa ENE 2.3 km/h 18.2 km/h 91 % 0 mm
23:26 -19.1 °C -19.8 °C 33809.2 hPa NE 12.7 km/h 25.9 km/h 91 % 0 mm
23:32 -19.1 °C -19.8 °C 33809.2 hPa ENE 2.3 km/h 20.8 km/h 91 % 0 mm
23:38 -19.1 °C -19.8 °C 33799.1 hPa Calm   20.8 km/h 91 % 0 mm
23:44 -19.1 °C -19.7 °C 33799.1 hPa NE 5.1 km/h 20.8 km/h 92 % 0 mm
23:50 -19.1 °C -19.7 °C 33799.1 hPa NE 10.3 km/h 23.3 km/h 92 % 0 mm
23:56 -19.1 °C -19.7 °C 33788.9 hPa NNE 17.9 km/h 20.8 km/h 92 % 0 mm
Meteo18
Compliments of Weather Underground - 4 mb

Script developed by  Jim McMurry - jmcmurry@mwt.net Adapted for the template by  Wim van der Kuil - Leuven-Template.eu

You find our weather info also at:

European Weather Network

Weather Underground

Equipment we use:

Weather-station
Davis Vue

Weather-program
Meteobridge

Weather-server
Raspberry PI 2 B+

Provider
1 and 1

Davis Vue

Meteobridge

Raspberry PI 2 B+

1 and 1